createdAt,value
2023-02-02T00:01:49.833Z,160.33
2023-02-02T00:04:24.252Z,156.40
2023-02-02T00:06:52.054Z,155.47
2023-02-02T00:09:20.780Z,157.30
2023-02-02T00:11:50.357Z,155.20
2023-02-02T00:14:18.832Z,152.80
2023-02-02T00:16:57.172Z,155.57
2023-02-02T00:19:33.639Z,154.43
2023-02-02T00:22:00.699Z,154.93
2023-02-02T00:24:27.802Z,158.17
2023-02-02T00:26:58.023Z,157.13
2023-02-02T00:29:29.005Z,155.27
2023-02-02T00:31:56.368Z,155.23
2023-02-02T00:34:23.920Z,157.63
2023-02-02T00:36:51.694Z,158.33
2023-02-02T00:39:22.318Z,154.80
2023-02-02T00:41:50.063Z,149.33
2023-02-02T00:44:35.506Z,175.83
2023-02-02T00:47:03.832Z,158.40
2023-02-02T00:49:31.296Z,153.87
2023-02-02T00:51:59.234Z,162.70
2023-02-02T00:54:26.661Z,154.73
2023-02-02T00:56:53.777Z,156.73
2023-02-02T00:59:20.955Z,156.63
2023-02-02T01:01:48.048Z,156.77
2023-02-02T01:04:15.162Z,156.53
2023-02-02T01:06:42.323Z,159.20
2023-02-02T01:09:09.567Z,157.63
2023-02-02T01:11:36.950Z,157.60
2023-02-02T01:14:04.239Z,166.30
2023-02-02T01:16:31.594Z,157.70
2023-02-02T01:18:58.675Z,156.43
2023-02-02T01:21:25.758Z,158.70
2023-02-02T01:23:52.870Z,155.03
2023-02-02T01:26:19.967Z,157.23
2023-02-02T01:28:47.508Z,158.57
2023-02-02T01:31:18.929Z,157.23
2023-02-02T01:33:47.788Z,155.97
2023-02-02T01:36:20.055Z,152.93
2023-02-02T01:38:48.821Z,154.90
2023-02-02T01:41:26.508Z,156.87
2023-02-02T01:44:01.189Z,153.50
2023-02-02T01:46:37.656Z,154.87
2023-02-02T01:49:18.487Z,153.57
2023-02-02T01:51:56.479Z,151.60
2023-02-02T01:54:33.083Z,154.00
2023-02-02T01:57:07.481Z,153.43
2023-02-02T01:59:35.973Z,155.97
2023-02-02T02:02:03.622Z,154.43
2023-02-02T02:04:32.940Z,151.13
2023-02-02T02:07:03.134Z,152.30
2023-02-02T02:09:31.532Z,153.53
2023-02-02T02:11:59.240Z,152.60
2023-02-02T02:14:46.544Z,155.87
2023-02-02T02:17:41.545Z,152.03
2023-02-02T02:21:04.851Z,151.43
2023-02-02T02:24:15.118Z,149.57
2023-02-02T02:27:15.862Z,150.93
2023-02-02T02:30:07.618Z,150.83
2023-02-02T02:33:05.875Z,146.73
2023-02-02T02:35:40.878Z,149.03
2023-02-02T02:38:34.597Z,152.97
2023-02-02T02:41:14.077Z,152.43
2023-02-02T02:43:49.033Z,151.87
2023-02-02T02:46:16.764Z,151.37
2023-02-02T02:48:46.208Z,155.07
2023-02-02T02:51:46.275Z,162.67
2023-02-02T02:54:31.674Z,154.90
2023-02-02T02:57:01.748Z,151.17
2023-02-02T02:59:34.484Z,151.23
2023-02-02T03:02:35.604Z,156.27
2023-02-02T03:05:12.426Z,157.83
2023-02-02T03:07:48.893Z,154.47
2023-02-02T03:10:20.036Z,152.83
2023-02-02T03:12:50.558Z,154.30
2023-02-02T03:15:19.078Z,163.50
2023-02-02T03:17:51.756Z,154.03
2023-02-02T03:20:18.962Z,161.37
2023-02-02T03:22:46.066Z,161.87
2023-02-02T03:25:13.246Z,156.13
2023-02-02T03:27:40.716Z,157.10
2023-02-02T03:30:11.430Z,160.83
2023-02-02T03:32:39.675Z,168.43
2023-02-02T03:35:08.036Z,158.03
2023-02-02T03:37:35.433Z,156.93
2023-02-02T03:40:02.537Z,153.80
2023-02-02T03:42:29.667Z,157.00
2023-02-02T03:44:56.827Z,158.97
2023-02-02T03:47:24.182Z,159.37
2023-02-02T03:49:51.199Z,156.77
2023-02-02T03:52:18.359Z,150.77
2023-02-02T03:54:45.378Z,156.67
2023-02-02T03:57:12.433Z,157.33
2023-02-02T03:59:39.524Z,161.93
2023-02-02T04:02:06.600Z,157.87
2023-02-02T04:04:33.707Z,155.60
2023-02-02T04:07:01.831Z,158.53
2023-02-02T04:09:29.078Z,160.93
2023-02-02T04:11:56.110Z,158.37
2023-02-02T04:14:23.205Z,153.73
2023-02-02T04:16:50.249Z,159.13
2023-02-02T04:19:17.408Z,164.23
2023-02-02T04:21:44.473Z,162.93
2023-02-02T04:24:13.683Z,160.03
2023-02-02T04:26:41.977Z,156.13
2023-02-02T04:29:09.379Z,156.60
2023-02-02T04:31:36.553Z,164.07
2023-02-02T04:34:03.845Z,159.00
2023-02-02T04:36:30.947Z,162.30
2023-02-02T04:38:58.052Z,159.47
2023-02-02T04:41:25.291Z,161.17
2023-02-02T04:43:52.361Z,159.20
2023-02-02T04:46:19.864Z,166.70
2023-02-02T04:48:49.484Z,155.57
2023-02-02T04:51:18.716Z,160.20
2023-02-02T04:53:46.070Z,157.80
2023-02-02T04:56:17.757Z,156.40
2023-02-02T04:58:45.815Z,158.73
2023-02-02T05:01:19.184Z,162.27
2023-02-02T05:03:46.889Z,152.03
2023-02-02T05:06:15.976Z,160.60
2023-02-02T05:08:43.935Z,158.30
2023-02-02T05:11:15.095Z,165.73
2023-02-02T05:13:47.314Z,163.90
2023-02-02T05:16:14.833Z,170.60
2023-02-02T05:18:43.232Z,229.47
2023-02-02T05:21:10.505Z,251.40
2023-02-02T05:23:37.642Z,248.90
2023-02-02T05:26:04.919Z,213.43
2023-02-02T05:28:32.034Z,200.53
2023-02-02T05:30:59.215Z,179.60
2023-02-02T05:33:26.256Z,174.73
2023-02-02T05:35:53.329Z,187.47
2023-02-02T05:38:20.378Z,161.23
2023-02-02T05:40:49.801Z,160.27
2023-02-02T05:43:16.886Z,158.00
2023-02-02T05:45:44.038Z,163.63
2023-02-02T05:48:14.791Z,156.97
2023-02-02T05:50:44.820Z,160.50
2023-02-02T05:53:14.184Z,162.30
2023-02-02T05:55:41.290Z,160.37
2023-02-02T05:58:08.363Z,162.33
2023-02-02T06:00:35.402Z,156.57
2023-02-02T06:03:02.532Z,160.70
2023-02-02T06:05:29.618Z,159.47
2023-02-02T06:07:56.668Z,161.83
2023-02-02T06:10:23.726Z,164.77
2023-02-02T06:12:51.206Z,170.77
2023-02-02T06:15:18.300Z,162.13
2023-02-02T06:17:45.456Z,164.33
2023-02-02T06:20:13.117Z,165.87
2023-02-02T06:22:40.375Z,167.30
2023-02-02T06:25:08.752Z,166.60
2023-02-02T06:27:36.153Z,165.00
2023-02-02T06:30:03.361Z,159.67
2023-02-02T06:32:30.882Z,155.60
2023-02-02T06:34:57.948Z,158.60
2023-02-02T06:37:25.110Z,159.07
2023-02-02T06:39:52.155Z,158.33
2023-02-02T06:42:21.768Z,160.13
2023-02-02T06:44:49.124Z,162.20
2023-02-02T06:47:17.104Z,155.17
2023-02-02T06:49:44.274Z,164.63
2023-02-02T06:52:11.306Z,164.77
2023-02-02T06:54:38.391Z,171.27
2023-02-02T06:57:05.547Z,161.50
2023-02-02T06:59:32.617Z,163.07
2023-02-02T07:01:59.749Z,157.13
2023-02-02T07:04:26.916Z,165.43
2023-02-02T07:06:53.955Z,157.10
2023-02-02T07:09:21.018Z,155.70
2023-02-02T07:11:48.097Z,159.17
2023-02-02T07:14:15.240Z,176.70
2023-02-02T07:16:42.337Z,190.10
2023-02-02T07:19:09.692Z,159.80
2023-02-02T07:21:36.778Z,160.70
2023-02-02T07:24:05.531Z,158.10
2023-02-02T07:26:35.164Z,161.57
2023-02-02T07:29:03.021Z,159.03
2023-02-02T07:31:30.361Z,165.20
2023-02-02T07:33:57.566Z,161.37
2023-02-02T07:36:25.675Z,164.70
2023-02-02T07:38:54.758Z,167.57
2023-02-02T07:41:22.241Z,166.00
2023-02-02T07:43:50.469Z,164.80
2023-02-02T07:46:18.730Z,164.40
2023-02-02T07:48:46.428Z,167.80
2023-02-02T07:51:16.852Z,160.77
2023-02-02T07:53:50.490Z,163.17
2023-02-02T07:56:25.605Z,172.10
2023-02-02T07:58:55.040Z,167.30
2023-02-02T08:01:23.726Z,160.77
2023-02-02T08:03:51.036Z,158.07
2023-02-02T08:06:37.268Z,161.90
2023-02-02T08:09:10.526Z,165.60
2023-02-02T08:11:39.037Z,160.43
2023-02-02T08:14:06.335Z,162.40
2023-02-02T08:16:34.428Z,161.20
2023-02-02T08:19:01.699Z,157.57
2023-02-02T08:21:28.855Z,165.17
2023-02-02T08:23:56.142Z,162.77
2023-02-02T08:26:29.409Z,159.23
2023-02-02T08:29:00.521Z,158.00
2023-02-02T08:31:32.187Z,158.80
2023-02-02T08:33:59.439Z,158.70
2023-02-02T08:36:29.164Z,164.43
2023-02-02T08:39:01.979Z,170.20
2023-02-02T08:41:30.434Z,160.50
2023-02-02T08:43:57.632Z,163.33
2023-02-02T08:46:25.452Z,165.70
2023-02-02T08:48:52.597Z,162.50
2023-02-02T08:51:20.557Z,162.47
2023-02-02T08:53:47.747Z,160.63
2023-02-02T08:56:18.297Z,156.50
2023-02-02T08:58:58.257Z,160.77
2023-02-02T09:01:31.652Z,161.93
2023-02-02T09:04:05.506Z,161.00
2023-02-02T09:06:36.049Z,162.53
2023-02-02T09:09:05.803Z,162.57
2023-02-02T09:11:33.736Z,163.33
2023-02-02T09:14:03.112Z,165.70
2023-02-02T09:16:30.487Z,170.40
2023-02-02T09:18:57.748Z,183.70
2023-02-02T09:21:25.561Z,174.67
2023-02-02T09:23:54.189Z,173.97
2023-02-02T09:26:27.973Z,174.73
2023-02-02T09:29:05.401Z,164.63
2023-02-02T09:31:37.625Z,170.83
2023-02-02T09:34:12.278Z,162.27
2023-02-02T09:36:40.430Z,163.87
2023-02-02T09:39:08.175Z,164.70
2023-02-02T09:41:37.923Z,175.87
2023-02-02T09:44:49.707Z,160.97
2023-02-02T09:47:46.413Z,191.10
2023-02-02T09:50:13.475Z,167.80
2023-02-02T09:53:20.994Z,171.23
2023-02-02T09:55:55.255Z,172.57
2023-02-02T09:58:25.963Z,176.10
2023-02-02T10:01:18.022Z,167.33
2023-02-02T10:04:09.849Z,164.50
2023-02-02T10:06:39.290Z,327.57
2023-02-02T10:09:40.891Z,168.70
2023-02-02T10:12:28.965Z,169.60
2023-02-02T10:15:33.599Z,168.20
2023-02-02T10:18:52.408Z,179.03
2023-02-02T10:21:38.150Z,197.17
2023-02-02T10:24:05.538Z,199.33
2023-02-02T10:26:40.268Z,170.03
2023-02-02T10:29:50.118Z,187.63
2023-02-02T10:32:46.441Z,171.57
2023-02-02T10:35:46.732Z,163.83
2023-02-02T10:38:39.333Z,166.97
2023-02-02T10:41:37.911Z,170.97
2023-02-02T10:44:16.608Z,182.10
2023-02-02T10:46:54.719Z,167.07
2023-02-02T10:49:32.107Z,166.77
2023-02-02T10:52:11.255Z,167.13
2023-02-02T10:54:57.707Z,163.10
2023-02-02T10:57:46.979Z,167.37
2023-02-02T11:00:31.104Z,177.03
2023-02-02T11:02:59.123Z,168.37
2023-02-02T11:05:47.454Z,161.47
2023-02-02T11:08:19.684Z,164.83
2023-02-02T11:10:52.290Z,167.43
2023-02-02T11:13:32.574Z,165.23
2023-02-02T11:16:38.877Z,163.50
2023-02-02T11:19:22.542Z,169.13
2023-02-02T11:21:56.423Z,164.83
2023-02-02T11:24:39.803Z,176.43
2023-02-02T11:27:14.282Z,165.30
2023-02-02T11:29:45.679Z,163.23
2023-02-02T11:32:33.094Z,171.93
2023-02-02T11:35:17.507Z,166.50
2023-02-02T11:38:15.764Z,169.40
2023-02-02T11:40:45.869Z,165.33
2023-02-02T11:43:52.462Z,173.13
2023-02-02T11:46:34.863Z,172.73
2023-02-02T11:49:19.137Z,171.47
2023-02-02T11:52:03.735Z,171.60
2023-02-02T11:54:38.764Z,172.30
2023-02-02T11:57:10.151Z,169.70
2023-02-02T11:59:45.129Z,172.17
2023-02-02T12:02:23.597Z,169.30
2023-02-02T12:05:10.957Z,172.17
2023-02-02T12:07:38.432Z,174.50
2023-02-02T12:10:27.701Z,167.97
2023-02-02T12:13:08.747Z,174.67
2023-02-02T12:15:44.345Z,171.17
2023-02-02T12:18:25.778Z,172.97
2023-02-02T12:21:05.701Z,173.67
2023-02-02T12:24:00.927Z,172.33
2023-02-02T12:26:34.816Z,176.53
2023-02-02T12:29:26.911Z,172.97
2023-02-02T12:32:22.127Z,176.20
2023-02-02T12:35:01.886Z,164.33
2023-02-02T12:37:40.200Z,161.47
2023-02-02T12:40:41.946Z,165.60
2023-02-02T12:43:39.300Z,165.67
2023-02-02T12:46:52.478Z,161.57
2023-02-02T12:49:31.438Z,160.07
2023-02-02T12:52:16.261Z,172.63
2023-02-02T12:55:04.438Z,158.43
2023-02-02T12:57:49.203Z,163.80
2023-02-02T13:00:27.030Z,158.03
2023-02-02T13:03:30.821Z,151.83
2023-02-02T13:09:30.714Z,156.43
2023-02-02T13:12:13.569Z,157.83
2023-02-02T13:15:02.603Z,152.43
2023-02-02T13:17:40.665Z,156.50
2023-02-02T13:20:42.446Z,155.23
2023-02-02T13:23:20.815Z,157.23
2023-02-02T13:26:29.367Z,154.23
2023-02-02T13:29:12.227Z,157.33
2023-02-02T13:32:06.625Z,155.43
2023-02-02T13:34:50.966Z,155.07
2023-02-02T13:37:32.179Z,154.30
2023-02-02T13:40:08.871Z,156.80
2023-02-02T13:42:38.474Z,162.10
2023-02-02T13:45:37.692Z,157.00
2023-02-02T13:48:16.069Z,159.40
2023-02-02T13:51:44.961Z,156.10
2023-02-02T13:54:50.628Z,157.17
2023-02-02T13:57:45.661Z,171.10
2023-02-02T14:00:21.831Z,167.73
2023-02-02T14:02:56.903Z,169.07
2023-02-02T14:05:34.959Z,173.23
2023-02-02T14:08:08.547Z,170.67
2023-02-02T14:10:53.685Z,165.70
2023-02-02T14:13:50.347Z,173.40
2023-02-02T14:16:43.915Z,167.07
2023-02-02T14:19:40.847Z,171.53
2023-02-02T14:22:14.666Z,170.53
2023-02-02T14:24:49.192Z,163.23
2023-02-02T14:27:16.283Z,178.03
2023-02-02T14:29:47.097Z,175.20
2023-02-02T14:32:29.120Z,173.07
2023-02-02T14:35:00.851Z,169.67
2023-02-02T14:37:41.293Z,169.10
2023-02-02T14:40:10.913Z,167.23
2023-02-02T14:43:29.937Z,170.23
2023-02-02T14:46:15.545Z,173.07
2023-02-02T14:49:02.848Z,166.07
2023-02-02T14:51:33.463Z,169.17
2023-02-02T14:54:06.853Z,169.63
2023-02-02T14:56:45.509Z,177.90
2023-02-02T14:59:39.060Z,173.90
2023-02-02T15:02:19.609Z,169.47
2023-02-02T15:04:49.548Z,167.53
2023-02-02T15:07:25.168Z,164.90
2023-02-02T15:09:56.631Z,174.80
2023-02-02T15:12:49.559Z,167.93
2023-02-02T15:15:29.307Z,166.87
2023-02-02T15:18:33.488Z,159.73
2023-02-02T15:21:06.800Z,160.47
2023-02-02T15:23:43.682Z,165.83
2023-02-02T15:26:45.408Z,161.80
2023-02-02T15:29:27.944Z,165.10
2023-02-02T15:31:55.857Z,166.00
2023-02-02T15:34:36.059Z,163.37
2023-02-02T15:37:06.661Z,170.30
2023-02-02T15:39:49.103Z,166.00
2023-02-02T15:42:55.668Z,166.90
2023-02-02T15:45:28.297Z,164.57
2023-02-02T15:47:58.192Z,161.47
2023-02-02T15:50:26.965Z,163.30
2023-02-02T15:52:55.788Z,162.03
2023-02-02T15:55:35.243Z,167.67
2023-02-02T15:58:03.261Z,166.53
2023-02-02T16:00:38.143Z,163.27
2023-02-02T16:03:21.012Z,163.90
2023-02-02T16:05:54.907Z,167.30
2023-02-02T16:08:34.761Z,167.77
2023-02-02T16:11:15.170Z,174.33
2023-02-02T16:14:03.146Z,314.77
2023-02-02T16:16:34.021Z,411.37
2023-02-02T16:19:23.601Z,383.53
2023-02-02T16:22:01.426Z,650.43
2023-02-02T16:24:34.162Z,939.37
2023-02-02T16:27:05.904Z,509.43
2023-02-02T16:29:34.360Z,312.50
2023-02-02T16:32:01.658Z,184.67
2023-02-02T16:34:40.852Z,1015.80
2023-02-02T16:37:14.813Z,801.77
2023-02-02T16:39:42.003Z,486.73
2023-02-02T16:42:31.596Z,202.43
2023-02-02T16:45:00.231Z,176.23
2023-02-02T16:47:27.218Z,247.60
2023-02-02T16:50:09.556Z,230.23
2023-02-02T16:52:58.353Z,548.20
2023-02-02T16:55:47.417Z,213.43
2023-02-02T16:58:21.936Z,172.60
2023-02-02T17:01:16.390Z,168.63
2023-02-02T17:03:55.352Z,185.43
2023-02-02T17:06:45.681Z,177.57
2023-02-02T17:09:41.422Z,237.37
2023-02-02T17:12:35.034Z,268.00
2023-02-02T17:15:17.955Z,274.87
2023-02-02T17:17:49.329Z,341.17
2023-02-02T17:20:20.894Z,358.07
2023-02-02T17:22:54.081Z,333.77
2023-02-02T17:25:41.337Z,279.70
2023-02-02T17:28:13.641Z,241.73
2023-02-02T17:30:47.332Z,933.10
2023-02-02T17:33:17.740Z,268.87
2023-02-02T17:35:55.834Z,172.07
2023-02-02T17:38:25.565Z,195.40
2023-02-02T17:40:54.216Z,197.27
2023-02-02T17:43:21.988Z,203.73
2023-02-02T17:45:49.412Z,192.73
2023-02-02T17:48:16.776Z,185.70
2023-02-02T17:50:44.733Z,190.00
2023-02-02T17:53:15.361Z,170.50
2023-02-02T17:55:44.691Z,182.40
2023-02-02T17:58:15.043Z,172.57
2023-02-02T18:00:43.200Z,180.70
2023-02-02T18:03:25.294Z,190.77
2023-02-02T18:05:52.409Z,184.47
2023-02-02T18:08:19.863Z,203.20
2023-02-02T18:10:46.896Z,170.30
2023-02-02T18:13:16.735Z,169.90
2023-02-02T18:15:44.142Z,173.90
2023-02-02T18:18:14.327Z,162.33
2023-02-02T18:20:47.999Z,161.57
2023-02-02T18:23:16.570Z,172.20
2023-02-02T18:25:43.824Z,166.23
2023-02-02T18:28:11.491Z,164.40
2023-02-02T18:30:39.980Z,166.37
2023-02-02T18:33:11.798Z,168.47
2023-02-02T18:35:46.321Z,174.53
2023-02-02T18:38:14.619Z,162.73
2023-02-02T18:40:42.104Z,176.87
2023-02-02T18:43:09.475Z,163.53
2023-02-02T18:45:36.588Z,163.13
2023-02-02T18:48:03.876Z,156.73
2023-02-02T18:50:30.871Z,156.67
2023-02-02T18:52:58.007Z,163.10
2023-02-02T18:55:25.444Z,157.37
2023-02-02T18:57:52.769Z,158.70
2023-02-02T19:00:22.050Z,153.80
2023-02-02T19:02:49.211Z,159.80
2023-02-02T19:05:35.167Z,156.50
2023-02-02T19:08:04.023Z,158.37
2023-02-02T19:10:31.578Z,155.77
2023-02-02T19:13:20.410Z,151.63
2023-02-02T19:15:49.949Z,153.37
2023-02-02T19:18:21.320Z,157.43
2023-02-02T19:20:49.986Z,154.20
2023-02-02T19:23:20.132Z,159.77
2023-02-02T19:25:51.653Z,156.20
2023-02-02T19:28:31.026Z,150.53
2023-02-02T19:31:01.338Z,150.13
2023-02-02T19:33:40.729Z,158.03
2023-02-02T19:36:22.522Z,153.77
2023-02-02T19:39:07.920Z,155.73
2023-02-02T19:41:36.800Z,150.90
2023-02-02T19:44:20.953Z,155.37
2023-02-02T19:46:51.408Z,152.73
2023-02-02T19:49:35.246Z,153.93
2023-02-02T19:52:04.064Z,157.67
2023-02-02T19:54:38.422Z,150.83
2023-02-02T19:57:20.724Z,157.97
2023-02-02T19:59:50.553Z,157.60
2023-02-02T20:02:41.924Z,153.03
2023-02-02T20:05:12.290Z,151.60
2023-02-02T20:07:39.538Z,153.70
2023-02-02T20:10:28.311Z,156.30
2023-02-02T20:12:55.847Z,151.93
2023-02-02T20:15:32.811Z,154.50
2023-02-02T20:18:04.253Z,152.27
2023-02-02T20:20:39.745Z,153.17
2023-02-02T20:23:40.237Z,154.67
2023-02-02T20:26:26.193Z,159.30
2023-02-02T20:28:59.924Z,154.83
2023-02-02T20:31:38.540Z,155.53
2023-02-02T20:34:30.067Z,153.27
2023-02-02T20:37:16.558Z,153.37
2023-02-02T20:40:08.334Z,159.80
2023-02-02T20:42:35.586Z,238.17
2023-02-02T20:45:02.604Z,175.80
2023-02-02T20:47:30.075Z,166.90
2023-02-02T20:50:00.542Z,157.10
2023-02-02T20:52:30.997Z,163.03
2023-02-02T20:54:58.106Z,149.87
2023-02-02T20:57:25.183Z,160.63
2023-02-02T20:59:57.516Z,156.07
2023-02-02T21:02:26.778Z,159.20
2023-02-02T21:04:54.145Z,154.87
2023-02-02T21:07:21.925Z,153.30
2023-02-02T21:09:51.219Z,154.43
2023-02-02T21:12:18.792Z,158.03
2023-02-02T21:14:46.253Z,155.40
2023-02-02T21:17:15.668Z,156.07
2023-02-02T21:19:43.524Z,153.90
2023-02-02T21:22:11.781Z,153.23
2023-02-02T21:24:39.359Z,156.10
2023-02-02T21:27:07.648Z,154.90
2023-02-02T21:29:34.968Z,151.77
2023-02-02T21:32:03.479Z,153.17
2023-02-02T21:34:31.440Z,153.17
2023-02-02T21:36:59.455Z,150.93
2023-02-02T21:39:37.338Z,150.50
2023-02-02T21:42:22.376Z,152.57
2023-02-02T21:44:56.411Z,155.60
2023-02-02T21:47:23.990Z,152.77
2023-02-02T21:49:51.099Z,157.50
2023-02-02T21:52:20.568Z,153.57
2023-02-02T21:54:49.243Z,153.97
2023-02-02T21:57:19.380Z,154.33
2023-02-02T21:59:53.476Z,155.23
2023-02-02T22:02:44.572Z,153.03
2023-02-02T22:05:34.310Z,154.60
2023-02-02T22:08:09.636Z,156.13
2023-02-02T22:10:40.279Z,164.43
2023-02-02T22:13:20.403Z,167.23
2023-02-02T22:15:51.082Z,158.97
2023-02-02T22:18:21.820Z,160.10
2023-02-02T22:20:51.329Z,153.40
2023-02-02T22:23:28.731Z,154.83
2023-02-02T22:25:58.018Z,152.40
2023-02-02T22:28:40.002Z,152.30
2023-02-02T22:31:07.138Z,152.07
2023-02-02T22:33:34.223Z,164.57
2023-02-02T22:36:01.250Z,165.70
2023-02-02T22:38:28.428Z,154.13
2023-02-02T22:40:55.492Z,150.17
2023-02-02T22:43:22.795Z,149.83
2023-02-02T22:45:49.895Z,152.10
2023-02-02T22:48:17.057Z,155.13
2023-02-02T22:50:44.465Z,157.67
2023-02-02T22:53:13.856Z,148.23
2023-02-02T22:55:41.280Z,149.50
2023-02-02T22:58:08.302Z,149.53
2023-02-02T23:00:36.112Z,150.10
2023-02-02T23:03:03.317Z,151.83
2023-02-02T23:05:30.540Z,157.70
2023-02-02T23:07:57.645Z,152.83
2023-02-02T23:10:27.991Z,152.57
2023-02-02T23:12:58.555Z,152.67
2023-02-02T23:15:26.808Z,152.37
2023-02-02T23:17:54.611Z,155.63
2023-02-02T23:20:22.140Z,153.67
2023-02-02T23:22:49.757Z,150.67
2023-02-02T23:25:18.765Z,151.73
2023-02-02T23:27:45.937Z,145.87
2023-02-02T23:30:13.975Z,149.10
2023-02-02T23:32:41.772Z,167.77
2023-02-02T23:35:10.851Z,154.43
2023-02-02T23:37:38.552Z,154.07
2023-02-02T23:40:06.420Z,162.07
2023-02-02T23:42:33.980Z,151.53
2023-02-02T23:45:01.124Z,177.53
2023-02-02T23:47:28.288Z,174.97
2023-02-02T23:49:55.825Z,643.87
2023-02-02T23:52:23.307Z,687.13
2023-02-02T23:54:50.387Z,691.33
2023-02-02T23:57:17.412Z,592.90
2023-02-02T23:59:44.604Z,332.87
